createdAt,value
2022-09-21T00:01:40.158Z,96435.72
2022-09-21T00:04:08.803Z,96429.28
2022-09-21T00:06:37.564Z,96384.41
2022-09-21T00:09:08.330Z,96428.72
2022-09-21T00:11:37.771Z,96403.41
2022-09-21T00:14:11.254Z,96431.16
2022-09-21T00:16:40.875Z,96422.78
2022-09-21T00:19:09.441Z,96404.81
2022-09-21T00:21:38.417Z,96424.84
2022-09-21T00:24:07.705Z,96431.84
2022-09-21T00:26:36.784Z,96431.84
2022-09-21T00:29:07.428Z,96424.84
2022-09-21T00:31:36.007Z,96412.81
2022-09-21T00:34:07.946Z,96302.31
2022-09-21T00:36:36.486Z,96437.66
2022-09-21T00:39:05.544Z,96437.53
2022-09-21T00:41:35.411Z,96436.91
2022-09-21T00:44:31.055Z,96437.75
2022-09-21T00:47:05.563Z,96405.91
2022-09-21T00:49:36.192Z,96435.31
2022-09-21T00:52:06.757Z,96437.53
2022-09-21T00:54:41.108Z,96386.31
2022-09-21T00:57:10.277Z,96440.28
2022-09-21T00:59:41.683Z,96437.81
2022-09-21T01:02:10.040Z,96434.00
2022-09-21T01:04:40.479Z,96394.75
2022-09-21T01:07:13.612Z,96437.31
2022-09-21T01:09:43.626Z,96430.34
2022-09-21T01:12:27.649Z,96428.47
2022-09-21T01:15:04.697Z,96437.72
2022-09-21T01:17:45.948Z,96429.25
2022-09-21T01:20:42.373Z,96442.34
2022-09-21T01:23:31.047Z,96432.22
2022-09-21T01:26:07.995Z,96440.81
2022-09-21T01:29:09.196Z,96436.88
2022-09-21T01:31:43.603Z,96429.28
2022-09-21T01:34:17.977Z,96426.13
2022-09-21T01:36:48.861Z,96413.97
2022-09-21T01:39:21.275Z,96428.66
2022-09-21T01:41:52.758Z,96428.38
2022-09-21T01:44:24.949Z,96451.34
2022-09-21T01:46:55.808Z,96450.38
2022-09-21T01:49:30.841Z,96445.69
2022-09-21T01:52:02.296Z,96447.97
2022-09-21T01:54:36.035Z,96449.69
2022-09-21T01:57:07.577Z,96450.84
2022-09-21T01:59:45.238Z,96454.25
2022-09-21T02:02:19.635Z,96447.84
2022-09-21T02:04:48.384Z,96451.09
2022-09-21T02:07:18.397Z,96451.72
2022-09-21T02:09:48.607Z,96452.75
2022-09-21T02:12:19.171Z,96447.56
2022-09-21T02:14:48.163Z,96440.72
2022-09-21T02:17:32.728Z,96451.94
2022-09-21T02:20:17.718Z,96459.13
2022-09-21T02:23:00.431Z,96451.09
2022-09-21T02:25:40.319Z,96447.41
2022-09-21T02:28:15.550Z,96449.03
2022-09-21T02:30:53.159Z,96378.19
2022-09-21T02:33:30.295Z,96423.78
2022-09-21T02:36:07.665Z,96448.28
2022-09-21T02:38:40.939Z,96447.47
2022-09-21T02:41:15.513Z,96442.34
2022-09-21T02:43:48.896Z,96442.94
2022-09-21T02:46:21.274Z,96446.22
2022-09-21T02:48:54.731Z,96409.25
2022-09-21T02:51:27.231Z,96418.88
2022-09-21T02:53:57.610Z,96425.88
2022-09-21T02:56:28.105Z,96442.22
2022-09-21T02:59:00.759Z,96457.81
2022-09-21T03:01:30.910Z,96458.84
2022-09-21T03:04:01.176Z,96448.00
2022-09-21T03:06:29.609Z,96462.34
2022-09-21T03:08:58.743Z,96457.44
2022-09-21T03:11:27.284Z,96456.69
2022-09-21T03:13:55.811Z,96454.69
2022-09-21T03:16:24.360Z,96462.53
2022-09-21T03:18:52.931Z,96458.91
2022-09-21T03:21:23.883Z,96458.56
2022-09-21T03:23:52.447Z,96455.25
2022-09-21T03:26:22.500Z,96458.91
2022-09-21T03:28:51.223Z,96470.72
2022-09-21T03:31:19.753Z,96462.63
2022-09-21T03:33:48.148Z,96467.16
2022-09-21T03:36:16.747Z,96477.84
2022-09-21T03:38:46.579Z,96470.03
2022-09-21T03:41:15.394Z,96468.19
2022-09-21T03:43:44.115Z,96466.34
2022-09-21T03:46:12.728Z,96469.25
2022-09-21T03:48:42.645Z,96467.22
2022-09-21T03:51:11.323Z,96476.50
2022-09-21T03:53:39.734Z,96483.69
2022-09-21T03:56:09.935Z,96479.59
2022-09-21T03:58:38.323Z,96479.00
2022-09-21T04:01:06.711Z,96450.59
2022-09-21T04:03:35.193Z,96477.22
2022-09-21T04:06:10.359Z,96482.28
2022-09-21T04:08:38.846Z,96482.72
2022-09-21T04:11:13.161Z,96484.56
2022-09-21T04:13:42.667Z,96494.22
2022-09-21T04:16:11.621Z,96483.75
2022-09-21T04:18:40.453Z,96490.13
2022-09-21T04:21:08.831Z,96491.41
2022-09-21T04:23:37.217Z,96488.94
2022-09-21T04:26:05.865Z,96488.72
2022-09-21T04:28:36.054Z,96485.81
2022-09-21T04:31:04.424Z,96487.47
2022-09-21T04:33:32.742Z,96494.88
2022-09-21T04:36:02.080Z,96480.31
2022-09-21T04:38:32.799Z,96461.34
2022-09-21T04:41:03.542Z,96449.94
2022-09-21T04:43:32.063Z,96483.88
2022-09-21T04:46:06.925Z,96484.69
2022-09-21T04:48:35.343Z,96491.06
2022-09-21T04:51:04.116Z,96489.22
2022-09-21T04:53:32.431Z,96485.34
2022-09-21T04:56:00.748Z,96491.94
2022-09-21T04:58:29.442Z,96472.66
2022-09-21T05:00:57.735Z,96491.34
2022-09-21T05:03:28.467Z,96473.97
2022-09-21T05:05:58.657Z,96470.09
2022-09-21T05:08:42.260Z,96492.19
2022-09-21T05:11:13.456Z,96493.44
2022-09-21T05:13:42.009Z,96452.00
2022-09-21T05:16:11.019Z,96496.34
2022-09-21T05:18:41.278Z,96500.03
2022-09-21T05:21:11.027Z,96492.66
2022-09-21T05:23:39.535Z,96504.31
2022-09-21T05:26:07.962Z,96509.47
2022-09-21T05:28:40.054Z,96502.03
2022-09-21T05:31:24.450Z,96508.41
2022-09-21T05:33:56.377Z,96511.94
2022-09-21T05:36:38.123Z,96513.75
2022-09-21T05:39:07.850Z,96516.41
2022-09-21T05:41:37.359Z,96491.00
2022-09-21T05:44:06.440Z,96525.56
2022-09-21T05:46:40.419Z,96530.84
2022-09-21T05:49:20.402Z,96530.22
2022-09-21T05:52:02.315Z,96522.34
2022-09-21T05:54:40.913Z,96523.56
2022-09-21T05:57:15.928Z,96533.16
2022-09-21T06:00:04.644Z,96529.22
2022-09-21T06:02:52.959Z,96536.22
2022-09-21T06:05:23.868Z,96533.97
2022-09-21T06:07:52.354Z,96530.81
2022-09-21T06:10:21.088Z,96466.19
2022-09-21T06:12:49.472Z,96476.78
2022-09-21T06:15:18.373Z,96536.84
2022-09-21T06:17:46.811Z,96530.00
2022-09-21T06:20:15.370Z,96525.84
2022-09-21T06:22:45.442Z,96519.22
2022-09-21T06:25:13.867Z,96526.75
2022-09-21T06:27:42.304Z,96529.78
2022-09-21T06:30:11.380Z,96527.50
2022-09-21T06:32:39.846Z,96533.56
2022-09-21T06:35:08.889Z,96515.91
2022-09-21T06:37:38.568Z,96507.00
2022-09-21T06:40:10.117Z,96531.59
2022-09-21T06:42:38.508Z,96535.22
2022-09-21T06:45:07.932Z,96530.59
2022-09-21T06:47:36.315Z,96546.38
2022-09-21T06:50:04.797Z,96513.94
2022-09-21T06:52:33.423Z,96532.34
2022-09-21T06:55:01.995Z,96541.91
2022-09-21T06:57:32.911Z,96540.56
2022-09-21T07:00:01.642Z,96542.56
2022-09-21T07:02:30.068Z,96542.47
2022-09-21T07:04:59.320Z,96544.47
2022-09-21T07:07:30.491Z,96542.75
2022-09-21T07:10:13.216Z,96546.19
2022-09-21T07:12:46.014Z,96554.13
2022-09-21T07:15:15.597Z,96534.16
2022-09-21T07:17:51.681Z,96550.66
2022-09-21T07:20:20.455Z,96528.25
2022-09-21T07:22:49.050Z,96560.56
2022-09-21T07:25:18.048Z,96547.50
2022-09-21T07:27:48.382Z,96556.69
2022-09-21T07:30:16.730Z,96557.19
2022-09-21T07:32:45.206Z,96557.34
2022-09-21T07:35:13.587Z,96535.28
2022-09-21T07:37:41.937Z,96523.06
2022-09-21T07:40:11.403Z,96556.78
2022-09-21T07:42:39.796Z,96558.50
2022-09-21T07:45:11.431Z,96561.91
2022-09-21T07:47:39.827Z,96545.22
2022-09-21T07:50:09.056Z,96567.06
2022-09-21T07:52:37.459Z,96555.38
2022-09-21T07:55:06.484Z,96558.16
2022-09-21T07:57:51.928Z,96552.91
2022-09-21T08:00:22.571Z,96550.91
2022-09-21T08:02:51.438Z,96556.13
2022-09-21T08:05:19.831Z,96539.72
2022-09-21T08:07:48.525Z,96556.72
2022-09-21T08:10:16.947Z,96492.34
2022-09-21T08:12:45.276Z,96556.44
2022-09-21T08:15:36.875Z,96564.16
2022-09-21T08:18:07.392Z,96562.38
2022-09-21T08:20:35.745Z,96561.44
2022-09-21T08:23:04.395Z,96567.25
2022-09-21T08:25:34.512Z,96567.59
2022-09-21T08:28:08.845Z,96559.34
2022-09-21T08:30:38.397Z,96532.97
2022-09-21T08:33:08.397Z,96563.91
2022-09-21T08:35:37.269Z,96561.56
2022-09-21T08:38:05.623Z,96563.84
2022-09-21T08:40:35.203Z,96571.50
2022-09-21T08:43:09.097Z,96571.69
2022-09-21T08:45:43.764Z,96574.78
2022-09-21T08:48:24.034Z,96536.72
2022-09-21T08:50:57.438Z,96567.13
2022-09-21T08:53:31.192Z,96568.56
2022-09-21T08:55:59.330Z,96572.75
2022-09-21T08:58:29.689Z,96570.22
2022-09-21T09:01:10.364Z,96580.72
2022-09-21T09:03:57.422Z,96583.00
2022-09-21T09:06:33.541Z,96576.88
2022-09-21T09:09:25.322Z,96587.59
2022-09-21T09:12:11.349Z,96585.78
2022-09-21T09:15:01.591Z,96538.19
2022-09-21T09:17:43.314Z,96578.03
2022-09-21T09:20:17.592Z,96581.94
2022-09-21T09:22:50.184Z,96569.44
2022-09-21T09:25:22.760Z,96583.56
2022-09-21T09:27:55.289Z,96549.84
2022-09-21T09:30:26.391Z,96576.78
2022-09-21T09:33:01.863Z,96574.47
2022-09-21T09:35:37.510Z,96579.47
2022-09-21T09:38:13.824Z,96574.22
2022-09-21T09:40:58.014Z,96579.69
2022-09-21T09:43:38.490Z,96583.59
2022-09-21T09:46:16.007Z,96574.44
2022-09-21T09:49:00.417Z,96571.81
2022-09-21T09:51:30.356Z,96579.94
2022-09-21T09:54:01.704Z,96577.06
2022-09-21T09:56:31.745Z,96574.72
2022-09-21T09:59:08.309Z,96573.69
2022-09-21T10:01:43.206Z,96583.72
2022-09-21T10:04:13.145Z,96582.94
2022-09-21T10:06:46.418Z,96584.97
2022-09-21T10:09:26.389Z,96582.56
2022-09-21T10:11:56.687Z,96580.34
2022-09-21T10:14:27.180Z,96581.97
2022-09-21T10:17:00.127Z,96582.28
2022-09-21T10:19:30.262Z,96578.72
2022-09-21T10:22:03.520Z,96579.31
2022-09-21T10:24:34.803Z,96554.31
2022-09-21T10:27:10.573Z,96584.50
2022-09-21T10:29:44.375Z,96563.06
2022-09-21T10:32:23.694Z,96508.84
2022-09-21T10:35:14.258Z,96579.50
2022-09-21T10:37:46.659Z,96584.13
2022-09-21T10:40:27.349Z,96555.13
2022-09-21T10:42:58.785Z,96573.56
2022-09-21T10:45:28.590Z,96546.91
2022-09-21T10:47:59.876Z,96571.97
2022-09-21T10:50:31.708Z,96577.41
2022-09-21T10:53:12.721Z,96563.84
2022-09-21T10:55:52.712Z,96576.88
2022-09-21T10:58:32.827Z,96571.22
2022-09-21T11:01:12.934Z,96569.13
2022-09-21T11:03:51.108Z,96568.31
2022-09-21T11:06:26.436Z,96570.53
2022-09-21T11:09:00.724Z,96576.44
2022-09-21T11:11:50.476Z,96570.81
2022-09-21T11:14:31.194Z,96560.81
2022-09-21T11:17:03.247Z,96557.63
2022-09-21T11:19:40.109Z,96553.78
2022-09-21T11:22:14.336Z,96568.75
2022-09-21T11:24:50.311Z,96555.28
2022-09-21T11:27:24.627Z,96547.38
2022-09-21T11:30:03.150Z,96558.22
2022-09-21T11:32:43.968Z,96559.56
2022-09-21T11:35:47.723Z,96563.88
2022-09-21T11:38:34.416Z,96567.03
2022-09-21T11:41:22.551Z,96564.31
2022-09-21T11:44:19.280Z,96553.78
2022-09-21T11:46:56.189Z,96552.81
2022-09-21T11:49:40.817Z,96558.88
2022-09-21T11:52:23.584Z,96538.84
2022-09-21T11:55:23.461Z,96550.25
2022-09-21T11:57:59.565Z,96543.81
2022-09-21T12:00:32.252Z,96498.28
2022-09-21T12:03:30.963Z,96547.09
2022-09-21T12:06:20.111Z,96494.81
2022-09-21T12:09:02.612Z,96415.97
2022-09-21T12:11:39.023Z,96536.06
2022-09-21T12:14:17.659Z,96529.88
2022-09-21T12:16:53.368Z,96536.97
2022-09-21T12:19:33.259Z,96539.94
2022-09-21T12:22:09.389Z,96532.91
2022-09-21T12:24:42.212Z,96526.16
2022-09-21T12:27:22.943Z,96534.25
2022-09-21T12:29:56.950Z,96532.66
2022-09-21T12:32:29.923Z,96531.28
2022-09-21T12:35:03.793Z,96535.91
2022-09-21T12:37:37.151Z,96531.00
2022-09-21T12:40:15.271Z,96526.38
2022-09-21T12:42:50.087Z,96529.06
2022-09-21T12:45:27.077Z,96528.28
2022-09-21T12:48:01.007Z,96521.75
2022-09-21T12:50:44.939Z,96520.66
2022-09-21T12:53:16.910Z,96517.47
2022-09-21T12:55:54.947Z,96502.31
2022-09-21T12:58:44.244Z,96526.94
2022-09-21T13:01:26.447Z,96518.03
2022-09-21T13:04:12.551Z,96513.69
2022-09-21T13:07:05.324Z,96515.03
2022-09-21T13:09:33.959Z,96505.00
2022-09-21T13:12:08.953Z,96471.41
2022-09-21T13:14:45.286Z,96510.44
2022-09-21T13:17:22.989Z,96505.56
2022-09-21T13:20:04.007Z,96510.16
2022-09-21T13:22:34.547Z,96502.84
2022-09-21T13:25:07.112Z,96504.50
2022-09-21T13:28:00.790Z,96509.34
2022-09-21T13:30:41.611Z,96502.31
2022-09-21T13:33:40.440Z,96510.69
2022-09-21T13:36:32.407Z,96503.41
2022-09-21T13:39:17.291Z,96503.94
2022-09-21T13:42:02.512Z,96508.81
2022-09-21T13:44:44.198Z,96485.81
2022-09-21T13:47:14.795Z,96497.69
2022-09-21T13:49:57.181Z,96484.97
2022-09-21T13:52:40.347Z,96493.06
2022-09-21T13:55:25.031Z,96492.53
2022-09-21T13:57:55.905Z,96482.19
2022-09-21T14:00:43.410Z,96480.03
2022-09-21T14:03:24.787Z,96442.72
2022-09-21T14:05:57.147Z,96474.63
2022-09-21T14:08:31.864Z,96442.19
2022-09-21T14:11:03.824Z,96478.16
2022-09-21T14:13:36.256Z,96474.06
2022-09-21T14:16:44.722Z,96477.84
2022-09-21T14:19:46.075Z,96474.59
2022-09-21T14:22:41.455Z,96466.47
2022-09-21T14:25:49.328Z,96470.78
2022-09-21T14:28:19.795Z,96462.63
2022-09-21T14:30:56.699Z,96475.88
2022-09-21T14:33:33.883Z,96466.41
2022-09-21T14:36:09.739Z,96446.88
2022-09-21T14:38:52.006Z,96462.53
2022-09-21T14:41:24.138Z,96464.69
2022-09-21T14:43:55.733Z,96411.69
2022-09-21T14:46:43.773Z,96449.28
2022-09-21T14:49:28.276Z,96457.16
2022-09-21T14:52:24.753Z,96455.56
2022-09-21T14:55:08.370Z,96451.53
2022-09-21T14:58:08.187Z,96456.72
2022-09-21T15:00:41.288Z,96458.91
2022-09-21T15:03:37.171Z,96453.50
2022-09-21T15:06:27.859Z,96457.06
2022-09-21T15:09:29.986Z,96429.75
2022-09-21T15:12:05.107Z,96456.00
2022-09-21T15:14:43.994Z,96451.41
2022-09-21T15:17:26.517Z,96459.25
2022-09-21T15:20:01.023Z,96453.03
2022-09-21T15:22:29.672Z,96442.22
2022-09-21T15:24:59.908Z,96458.16
2022-09-21T15:27:33.293Z,96445.44
2022-09-21T15:30:03.530Z,96453.53
2022-09-21T15:32:38.671Z,96454.88
2022-09-21T15:35:18.086Z,96458.94
2022-09-21T15:37:47.796Z,96461.91
2022-09-21T15:40:21.883Z,96462.72
2022-09-21T15:43:04.039Z,96458.63
2022-09-21T15:45:36.991Z,96439.41
2022-09-21T15:48:13.375Z,96457.25
2022-09-21T15:50:43.290Z,96440.75
2022-09-21T15:53:19.797Z,96456.69
2022-09-21T15:55:49.036Z,96368.66
2022-09-21T15:58:28.691Z,96454.50
2022-09-21T16:00:58.055Z,96459.09
2022-09-21T16:03:27.351Z,96455.88
2022-09-21T16:05:57.497Z,96456.16
2022-09-21T16:08:33.541Z,96452.34
2022-09-21T16:11:19.107Z,96455.56
2022-09-21T16:14:07.175Z,96456.09
2022-09-21T16:17:06.405Z,96456.63
2022-09-21T16:19:45.615Z,96462.56
2022-09-21T16:22:15.163Z,96441.94
2022-09-21T16:24:47.801Z,96463.06
2022-09-21T16:27:45.287Z,96454.94
2022-09-21T16:30:44.966Z,96438.59
2022-09-21T16:33:45.003Z,96454.56
2022-09-21T16:36:40.900Z,96461.59
2022-09-21T16:39:15.691Z,96463.44
2022-09-21T16:41:51.055Z,96474.22
2022-09-21T16:44:23.148Z,96460.69
2022-09-21T16:46:59.795Z,96459.03
2022-09-21T16:49:32.343Z,96460.06
2022-09-21T16:52:01.544Z,96473.56
2022-09-21T16:54:30.663Z,96455.41
2022-09-21T16:57:02.611Z,96428.50
2022-09-21T16:59:33.316Z,96433.34
2022-09-21T17:02:06.115Z,96455.25
2022-09-21T17:04:36.013Z,96460.31
2022-09-21T17:07:06.712Z,96420.47
2022-09-21T17:09:38.585Z,96449.41
2022-09-21T17:12:09.147Z,96446.09
2022-09-21T17:14:41.860Z,96440.59
2022-09-21T17:17:17.761Z,96462.72
2022-09-21T17:19:46.716Z,96437.22
2022-09-21T17:22:17.722Z,96461.31
2022-09-21T17:24:51.230Z,96433.28
2022-09-21T17:27:21.341Z,96466.88
2022-09-21T17:29:50.575Z,96435.44
2022-09-21T17:32:22.167Z,96455.44
2022-09-21T17:34:57.087Z,96469.91
2022-09-21T17:37:27.029Z,96464.97
2022-09-21T17:39:55.481Z,96465.50
2022-09-21T17:42:25.976Z,96442.06
2022-09-21T17:45:13.017Z,96467.50
2022-09-21T17:47:43.826Z,96463.13
2022-09-21T17:50:23.489Z,96457.88
2022-09-21T17:53:09.983Z,96460.31
2022-09-21T17:55:39.974Z,96405.13
2022-09-21T17:58:24.511Z,96464.50
2022-09-21T18:01:02.110Z,96469.81
2022-09-21T18:03:36.038Z,96467.63
2022-09-21T18:06:05.331Z,96465.13
2022-09-21T18:08:35.619Z,96470.22
2022-09-21T18:11:16.850Z,96445.91
2022-09-21T18:13:55.392Z,96469.81
2022-09-21T18:16:28.477Z,96463.72
2022-09-21T18:19:17.471Z,96469.38
2022-09-21T18:21:50.772Z,96469.31
2022-09-21T18:24:28.701Z,96467.13
2022-09-21T18:27:00.424Z,96462.59
2022-09-21T18:29:40.902Z,96480.53
2022-09-21T18:32:42.355Z,96479.38
2022-09-21T18:35:31.184Z,96482.00
2022-09-21T18:38:12.830Z,96476.53
2022-09-21T18:40:53.139Z,96485.91
2022-09-21T18:43:33.660Z,96482.41
2022-09-21T18:46:04.793Z,96488.78
2022-09-21T18:48:53.035Z,96484.38
2022-09-21T18:51:30.572Z,96489.03
2022-09-21T18:54:00.760Z,96444.53
2022-09-21T18:56:34.176Z,96486.91
2022-09-21T18:59:03.595Z,96491.47
2022-09-21T19:01:34.482Z,96501.41
2022-09-21T19:04:03.509Z,96494.41
2022-09-21T19:06:55.735Z,96494.56
2022-09-21T19:09:38.285Z,96480.03
2022-09-21T19:12:17.713Z,96495.19
2022-09-21T19:14:57.843Z,96493.00
2022-09-21T19:17:46.212Z,96492.69
2022-09-21T19:20:41.897Z,96495.03
2022-09-21T19:23:20.796Z,96499.25
2022-09-21T19:25:53.409Z,96493.25
2022-09-21T19:28:51.838Z,96492.91
2022-09-21T19:31:20.846Z,96490.91
2022-09-21T19:33:51.193Z,96505.44
2022-09-21T19:36:20.509Z,96501.38
2022-09-21T19:38:51.133Z,96501.59
2022-09-21T19:41:36.444Z,96498.34
2022-09-21T19:44:17.897Z,96511.09
2022-09-21T19:46:54.833Z,96497.56
2022-09-21T19:49:29.645Z,96492.69
2022-09-21T19:52:01.573Z,96496.06
2022-09-21T19:54:50.150Z,96492.34
2022-09-21T19:57:37.914Z,96501.59
2022-09-21T20:00:09.018Z,96491.69
2022-09-21T20:02:41.738Z,96463.72
2022-09-21T20:05:16.424Z,96502.06
2022-09-21T20:07:50.821Z,96506.72
2022-09-21T20:10:43.776Z,96505.91
2022-09-21T20:13:23.080Z,96499.75
2022-09-21T20:15:57.079Z,96502.91
2022-09-21T20:18:33.711Z,96500.22
2022-09-21T20:21:02.636Z,96496.94
2022-09-21T20:23:32.450Z,96502.78
2022-09-21T20:26:06.686Z,96501.53
2022-09-21T20:28:36.183Z,96447.00
2022-09-21T20:31:05.537Z,96504.09
2022-09-21T20:33:33.890Z,96452.47
2022-09-21T20:36:02.681Z,96495.03
2022-09-21T20:38:31.383Z,96497.94
2022-09-21T20:40:59.750Z,96493.88
2022-09-21T20:43:32.579Z,96496.34
2022-09-21T20:46:03.663Z,96484.06
2022-09-21T20:48:32.214Z,96493.78
2022-09-21T20:51:03.555Z,96495.06
2022-09-21T20:53:32.044Z,96494.47
2022-09-21T20:56:02.263Z,96498.22
2022-09-21T20:58:32.378Z,96459.03
2022-09-21T21:01:04.833Z,96499.81
2022-09-21T21:03:33.848Z,96484.66
2022-09-21T21:06:10.332Z,96496.22
2022-09-21T21:08:38.755Z,96493.78
2022-09-21T21:11:07.209Z,96492.16
2022-09-21T21:13:37.660Z,96423.13
2022-09-21T21:16:11.063Z,96497.16
2022-09-21T21:18:42.875Z,96484.94
2022-09-21T21:21:11.220Z,96488.66
2022-09-21T21:23:53.540Z,96490.75
2022-09-21T21:26:38.306Z,96487.50
2022-09-21T21:29:12.583Z,96490.31
2022-09-21T21:31:41.279Z,96485.75
2022-09-21T21:34:09.731Z,96493.00
2022-09-21T21:36:38.136Z,96485.16
2022-09-21T21:39:06.620Z,96479.69
2022-09-21T21:41:35.199Z,96484.47
2022-09-21T21:44:03.800Z,96484.47
2022-09-21T21:46:33.737Z,96484.94
2022-09-21T21:49:02.244Z,96453.91
2022-09-21T21:51:30.587Z,96480.50
2022-09-21T21:53:59.053Z,96478.06
2022-09-21T21:56:27.520Z,96478.88
2022-09-21T21:58:56.895Z,96479.34
2022-09-21T22:01:27.091Z,96441.13
2022-09-21T22:03:58.572Z,96476.44
2022-09-21T22:06:27.677Z,96484.34
2022-09-21T22:08:57.484Z,96472.81
2022-09-21T22:11:27.163Z,96474.69
2022-09-21T22:13:58.631Z,96441.44
2022-09-21T22:16:28.930Z,96470.38
2022-09-21T22:18:59.455Z,96468.41
2022-09-21T22:21:30.344Z,96466.50
2022-09-21T22:24:00.462Z,96463.59
2022-09-21T22:26:30.584Z,96469.31
2022-09-21T22:29:01.330Z,96407.72
2022-09-21T22:31:33.037Z,96470.25
2022-09-21T22:34:03.120Z,96469.53
2022-09-21T22:36:33.291Z,96422.63
2022-09-21T22:39:02.139Z,96453.22
2022-09-21T22:41:32.747Z,96467.75
2022-09-21T22:44:01.419Z,96461.25
2022-09-21T22:46:31.230Z,96465.09
2022-09-21T22:49:00.724Z,96457.41
2022-09-21T22:51:31.181Z,96466.38
2022-09-21T22:53:59.835Z,96464.72
2022-09-21T22:56:29.484Z,96453.31
2022-09-21T22:58:59.470Z,96442.09
2022-09-21T23:01:29.347Z,96462.97
2022-09-21T23:04:00.432Z,96458.31
2022-09-21T23:06:33.485Z,96442.75
2022-09-21T23:09:03.654Z,96457.09
2022-09-21T23:11:35.007Z,96460.22
2022-09-21T23:14:04.047Z,96447.06
2022-09-21T23:16:32.867Z,96465.13
2022-09-21T23:19:01.904Z,96461.66
2022-09-21T23:21:32.658Z,96464.09
2022-09-21T23:24:02.655Z,96434.72
2022-09-21T23:26:34.132Z,96439.69
2022-09-21T23:29:03.955Z,96461.88
2022-09-21T23:31:33.635Z,96456.75
2022-09-21T23:34:07.493Z,96454.88
2022-09-21T23:36:38.008Z,96455.94
2022-09-21T23:39:08.251Z,96463.38
2022-09-21T23:41:37.956Z,96463.97
2022-09-21T23:44:06.502Z,96461.75
2022-09-21T23:46:37.087Z,96456.88
2022-09-21T23:49:05.886Z,96427.81
2022-09-21T23:51:34.411Z,96461.28
2022-09-21T23:54:04.832Z,96461.28
2022-09-21T23:56:34.237Z,96450.53
2022-09-21T23:59:02.980Z,96441.28
